Flight Track Log - Related Links

Times and Time Zones

All times are in EDT time to prevent confusion due to time zone crossing. See the AMX466 flight status page for this flight to view local times or setup timezone preferences in your user account.


Time Position Orientation Groundspeed Altitude Reporting Facility
EDT Latitude Longitude Course Direction KTS MPH feet Rate Location/Type
Tue 11:29:59 PM 20.5260 -103.3210 180° South 105 121  Level FlightAware ADS-B
Tue 11:30:14 PM 20.5220 -103.3110 113° Southeast 160 184 9,081 Level FlightAware ADS-B
Tue 11:30:36 PM 20.5150 -103.2940 114° Southeast 173 199 5,600 9,143 Climbing FlightAware ADS-B
Tue 11:30:56 PM 20.5090 -103.2780 112° Southeast 183 211 6,400 2,063 Climbing FlightAware ADS-B
Tue 11:31:08 PM 20.5050 -103.2670 111° Southeast 200 230 6,700 1,500 Climbing FlightAware ADS-B
Tue 11:31:16 PM 20.5020 -103.2580 110° East 208 239 6,900 2,270 Climbing FlightAware ADS-B
Tue 11:31:45 PM 20.5130 -103.2330 65° Northeast 221 254 8,100 2,545 Climbing FlightAware ADS-B
Tue 11:31:49 PM 20.5170 -103.2300 35° Northeast 223 257 8,300 2,769 Climbing FlightAware ADS-B
Tue 11:31:58 PM 20.5270 -103.2270 16° North 234 269 8,700 2,308 Climbing FlightAware ADS-B
Tue 11:32:02 PM 20.5310 -103.2270 360° North 238 274 8,800 1,556 Climbing FlightAware ADS-B
Tue 11:32:25 PM 20.5560 -103.2370 339° North 271 312 9,400 2,129 Climbing FlightAware ADS-B
Tue 11:32:33 PM 20.5620 -103.2460 305° West 267 307 9,900 2,318 Climbing FlightAware ADS-B
Tue 11:33:09 PM 20.5870 -103.2890 302° West 299 344 11,100 2,294 Climbing FlightAware ADS-B
Tue 11:33:41 PM 20.6100 -103.3310 300° West 312 359 12,500 2,382 Climbing FlightAware ADS-B
Tue 11:34:17 PM 20.6370 -103.3810 300° West 333 383 13,800 2,308 Climbing FlightAware ADS-B
Tue 11:34:33 PM 20.6470 -103.4050 294° West 341 392 14,500 2,750 Climbing FlightAware ADS-B
Tue 11:35:05 PM 20.6550 -103.4590 279° West 344 396 16,000 2,647 Climbing FlightAware ADS-B
Tue 11:35:41 PM 20.6620 -103.5210 277° West 352 405 17,500 2,514 Climbing FlightAware ADS-B
Tue 11:36:19 PM 20.6660 -103.5870 274° West 354 407 19,100 2,229 Climbing FlightAware ADS-B
Tue 11:36:51 PM 20.6690 -103.6430 273° West 360 414 20,100 1,324 Climbing FlightAware ADS-B
Tue 11:37:27 PM 20.6730 -103.7090 274° West 382 440 20,600 1,479 Climbing FlightAware ADS-B
Tue 11:38:04 PM 20.6800 -103.7780 276° West 392 451 21,900 2,029 Climbing FlightAware ADS-B
Tue 11:38:35 PM 20.6930 -103.8380 283° West 396 456 22,900 1,881 Climbing FlightAware ADS-B
Tue 11:39:11 PM 20.7140 -103.9060 288° West 403 464 24,000 1,229 Climbing FlightAware ADS-B
Tue 11:39:58 PM 20.7450 -103.9860 293° West 408 470 24,600 434 Climbing FlightAware ADS-B
Tue 11:40:34 PM 20.7670 -104.0430 292° West 408 470 24,600  Level FlightAware ADS-B
Tue 11:41:11 PM 20.7890 -104.1020 292° West 408 470 24,600  Level FlightAware ADS-B
Tue 11:41:47 PM 20.8110 -104.1590 292° West 408 470 24,600  Level FlightAware ADS-B
Tue 11:42:23 PM 20.8320 -104.2160 292° West 408 470 24,600  Level FlightAware ADS-B
Tue 11:42:59 PM 20.8540 -104.2740 292° West 408 470 24,600 540 Level FlightAware ADS-B
Tue 11:45:00 PM 21.2684 -104.6571 319° Northwest  Level Estimated
Tue 11:46:00 PM 21.4736 -104.8479 319° Northwest  Level Estimated
Tue 11:47:00 PM 21.6786 -105.0392 319° Northwest  Level Estimated
Tue 11:48:00 PM 21.8833 -105.2310 319° Northwest  Level Estimated
Tue 11:49:00 PM 22.0878 -105.4234 319° Northwest  Level Estimated
Tue 11:50:00 PM 22.2921 -105.6164 319° Northwest  Level Estimated
Tue 11:51:00 PM 22.4962 -105.8099 319° Northwest  Level Estimated
Tue 11:52:00 PM 22.7000 -106.0040 319° Northwest  Level Estimated
Tue 11:53:00 PM 22.9036 -106.1987 319° Northwest  Level Estimated
Tue 11:54:00 PM 23.1070 -106.3940 319° Northwest  Level Estimated
Tue 11:55:00 PM 23.3101 -106.5898 318° Northwest  Level Estimated
Tue 11:56:00 PM 23.5130 -106.7862 318° Northwest  Level Estimated
Tue 11:57:00 PM 23.7156 -106.9833 318° Northwest  Level Estimated
Tue 11:58:00 PM 23.9180 -107.1810 318° Northwest  Level Estimated
Tue 11:59:00 PM 24.1201 -107.3793 318° Northwest  Level Estimated
Wed 12:00:00 AM 24.3219 -107.5782 318° Northwest  Level Estimated
Wed 12:01:00 AM 24.5235 -107.7777 318° Northwest  Level Estimated
Wed 12:02:00 AM 24.7249 -107.9779 318° Northwest  Level Estimated
Wed 12:03:00 AM 24.9259 -108.1788 318° Northwest  Level Estimated
Wed 12:04:00 AM 25.1268 -108.3803 318° Northwest  Level Estimated
Wed 12:05:00 AM 25.3273 -108.5824 318° Northwest  Level Estimated
Wed 12:06:00 AM 25.5275 -108.7853 318° Northwest  Level Estimated
Wed 12:07:00 AM 25.7275 -108.9888 318° Northwest  Level Estimated
Wed 12:07:12 AM 22.2240 -107.0690 318° Northwest 447 514 38,000  Level FlightAware ADS-B
Wed 12:07:52 AM 22.2670 -107.1420 302° West 446 513 38,000  Level FlightAware ADS-B
Wed 12:08:37 AM 22.3160 -107.2270 302° West 444 511 38,000  Level FlightAware ADS-B
Wed 12:09:09 AM 22.3520 -107.2870 303° West 442 509 38,000  Level FlightAware ADS-B
Wed 12:09:46 AM 22.3910 -107.3550 302° West 442 509 38,000  Level FlightAware ADS-B
Wed 12:10:26 AM 22.4350 -107.4310 302° West 442 509 38,000  Level FlightAware ADS-B
Wed 12:10:58 AM 22.4700 -107.4900 303° West 442 509 38,000  Level FlightAware ADS-B
Wed 12:11:40 AM 22.5160 -107.5710 302° West 446 513 38,000  Level FlightAware ADS-B
Wed 12:12:14 AM 22.5500 -107.6290 302° West 447 514 38,000  Level FlightAware ADS-B
Wed 12:12:56 AM 22.5990 -107.7140 302° West 451 519 38,000  Level FlightAware ADS-B
Wed 12:13:26 AM 22.6320 -107.7720 302° West 453 521 38,000  Level FlightAware ADS-B
Wed 12:14:00 AM 22.6700 -107.8380 302° West 454 522 38,000  Level FlightAware ADS-B
Wed 12:14:43 AM 22.7110 -107.9100 302° West 454 522 38,000  Level FlightAware ADS-B
Wed 12:15:19 AM 22.7440 -107.9700 301° West 454 522 38,000  Level FlightAware ADS-B
Wed 12:15:58 AM 22.8010 -108.0650 303° West 446 513 38,000  Level FlightAware ADS-B
Wed 12:16:34 AM 22.8390 -108.1330 301° West 444 511 38,000  Level FlightAware ADS-B
Wed 12:17:06 AM 22.8740 -108.1930 302° West 445 512 38,000  Level FlightAware ADS-B
Wed 12:17:42 AM 22.9130 -108.2610 302° West 444 511 38,000  Level FlightAware ADS-B
Wed 12:18:18 AM 22.9520 -108.3300 302° West 444 511 38,000  Level FlightAware ADS-B
Wed 12:18:50 AM 22.9870 -108.3910 302° West 444 511 38,000  Level FlightAware ADS-B
Wed 12:19:22 AM 23.0210 -108.4510 302° West 444 511 38,000  Level FlightAware ADS-B
Wed 12:20:10 AM 23.0730 -108.5430 302° West 444 511 38,000  Level FlightAware ADS-B
Wed 12:20:44 AM 23.1100 -108.6070 302° West 445 512 38,000  Level FlightAware ADS-B
Wed 12:21:18 AM 23.1460 -108.6710 301° West 443 510 38,000  Level FlightAware ADS-B
Wed 12:21:56 AM 23.1870 -108.7440 301° West 442 509 38,000  Level FlightAware ADS-B
Wed 12:22:32 AM 23.2250 -108.8110 302° West 442 509 38,000  Level FlightAware ADS-B
Wed 12:23:04 AM 23.2590 -108.8720 301° West 445 512 38,000  Level FlightAware ADS-B
Wed 12:23:40 AM 23.2990 -108.9420 302° West 449 517 38,000  Level FlightAware ADS-B
Wed 12:24:16 AM 23.3380 -109.0110 302° West 452 520 38,000  Level FlightAware ADS-B
Wed 12:24:56 AM 23.3810 -109.0880 301° West 453 521 38,000  Level FlightAware ADS-B
Wed 12:25:34 AM 23.4230 -109.1630 301° West 454 522 38,000  Level FlightAware ADS-B
Wed 12:26:06 AM 23.4580 -109.2260 301° West 454 522 38,000  Level FlightAware ADS-B
Wed 12:26:42 AM 23.4980 -109.2970 302° West 456 525 38,000  Level FlightAware ADS-B
Wed 12:27:14 AM 23.5300 -109.3550 301° West 457 526 38,000  Level FlightAware ADS-B
Wed 12:27:50 AM 23.5710 -109.4280 302° West 456 525 38,000  Level FlightAware ADS-B
Wed 12:28:26 AM 23.6120 -109.5010 302° West 455 524 38,000  Level FlightAware ADS-B
Wed 12:29:00 AM 23.6490 -109.5670 301° West 454 522 38,000  Level FlightAware ADS-B
Wed 12:29:39 AM 23.6910 -109.6420 301° West 453 521 38,000  Level FlightAware ADS-B
Wed 12:30:10 AM 23.7250 -109.7040 301° West 453 521 38,000  Level FlightAware ADS-B
Wed 12:30:46 AM 23.7640 -109.7740 301° West 450 518 38,000  Level FlightAware ADS-B
Wed 12:31:22 AM 23.8020 -109.8440 301° West 450 518 38,000  Level FlightAware ADS-B
Wed 12:31:58 AM 23.8410 -109.9130 302° West 448 516 38,000  Level FlightAware ADS-B
Wed 12:32:30 AM 23.8750 -109.9760 301° West 447 514 38,000  Level FlightAware ADS-B
Wed 12:33:08 AM 23.9160 -110.0490 302° West 447 514 38,000  Level FlightAware ADS-B
Wed 12:33:40 AM 23.9500 -110.1130 300° West 448 516 38,000  Level FlightAware ADS-B
Wed 12:34:16 AM 23.9880 -110.1810 301° West 447 514 38,000  Level FlightAware ADS-B
Wed 12:35:04 AM 24.0390 -110.2730 301° West 447 514 38,000  Level FlightAware ADS-B
Wed 12:35:40 AM 24.0800 -110.3410 303° West 446 513 38,000  Level FlightAware ADS-B
Wed 12:36:16 AM 24.1400 -110.3870 325° Northwest 434 499 38,000  Level FlightAware ADS-B
Wed 12:36:52 AM 24.1970 -110.4170 334° Northwest 434 499 38,000  Level FlightAware ADS-B
Wed 12:37:20 AM 24.2570 -110.4470 335° Northwest 435 501 38,000  Level FlightAware ADS-B
Wed 12:38:02 AM 24.3330 -110.4860 335° Northwest 437 503 38,000  Level FlightAware ADS-B
Wed 12:38:34 AM 24.3940 -110.5170 335° Northwest 437 503 38,000  Level FlightAware ADS-B
Wed 12:39:08 AM 24.4530 -110.5480 334° Northwest 438 504 38,000  Level FlightAware ADS-B
Wed 12:39:40 AM 24.5130 -110.5790 335° Northwest 439 505 38,000  Level FlightAware ADS-B
Wed 12:40:25 AM 24.5850 -110.6180 334° Northwest 439 505 38,000  Level FlightAware ADS-B
Wed 12:41:04 AM 24.6690 -110.6600 336° Northwest 439 505 38,000  Level FlightAware ADS-B
Wed 12:41:57 AM 24.7570 -110.7070 334° Northwest 439 505 38,000  Level FlightAware ADS-B
Wed 12:42:33 AM 24.8130 -110.7370 334° Northwest 439 505 38,000  Level FlightAware ADS-B
Wed 12:43:10 AM 24.8700 -110.7680 334° Northwest 439 505 38,000  Level FlightAware ADS-B
Wed 12:43:46 AM 24.9260 -110.7980 334° Northwest 439 505 38,000  Level FlightAware ADS-B
Wed 12:44:20 AM 25.0310 -110.8490 336° Northwest 443 510 38,000  Level FlightAware ADS-B
Wed 12:45:14 AM 25.1240 -110.8980 334° Northwest 444 511 38,000  Level FlightAware ADS-B
Wed 12:46:10 AM 25.2250 -110.9510 335° Northwest 447 514 38,000  Level FlightAware ADS-B
Wed 12:46:46 AM 25.2820 -110.9820 334° Northwest 447 514 38,000  Level FlightAware ADS-B
Wed 12:47:22 AM 25.3390 -111.0120 335° Northwest 447 514 38,000  Level FlightAware ADS-B
Wed 12:47:58 AM 25.3960 -111.0430 334° Northwest 447 514 38,000  Level FlightAware ADS-B
Wed 12:48:34 AM 25.4530 -111.0740 334° Northwest 447 514 38,000  Level FlightAware ADS-B
Wed 12:49:10 AM 25.5100 -111.1050 334° Northwest 447 514 38,000  Level FlightAware ADS-B
Wed 12:49:46 AM 25.5660 -111.1350 334° Northwest 447 514 38,000  Level FlightAware ADS-B
Wed 12:50:22 AM 25.6230 -111.1660 334° Northwest 447 514 38,000  Level FlightAware ADS-B
Wed 12:50:58 AM 25.6800 -111.1970 334° Northwest 447 514 38,000  Level FlightAware ADS-B
Wed 12:51:34 AM 25.7370 -111.2280 334° Northwest 447 514 38,000  Level FlightAware ADS-B
Wed 12:52:10 AM 25.7940 -111.2580 335° Northwest 447 514 38,000  Level FlightAware ADS-B
Wed 12:52:46 AM 25.8510 -111.2890 334° Northwest 447 514 38,000  Level FlightAware ADS-B
Wed 12:53:22 AM 25.9080 -111.3200 334° Northwest 447 514 38,000  Level FlightAware ADS-B
Wed 12:53:58 AM 25.9650 -111.3510 334° Northwest 447 514 38,000  Level FlightAware ADS-B
Wed 12:54:34 AM 26.0220 -111.3820 334° Northwest 447 514 38,000  Level FlightAware ADS-B
Wed 12:55:11 AM 26.0800 -111.4140 334° Northwest 447 514 38,000  Level FlightAware ADS-B
Wed 12:57:00 AM 26.4790 -111.7371 324° Northwest  Level Estimated
Wed 12:58:00 AM 26.6983 -111.9158 324° Northwest  Level Estimated
Wed 12:59:00 AM 26.9174 -112.0953 324° Northwest  Level Estimated
Wed 12:59:10 AM 26.6770 -111.8220 324° Northwest 459 528 38,000  Level FlightAware ADS-B
Wed 12:59:57 AM 26.7510 -111.8740 328° Northwest 459 528 38,000  Level FlightAware ADS-B
Wed 01:00:33 AM 26.8060 -111.9120 328° Northwest 459 528 38,000  Level FlightAware ADS-B
Wed 01:01:02 AM 26.8820 -111.9630 329° Northwest 467 537 38,000  Level FlightAware ADS-B
Wed 01:01:42 AM 26.9490 -112.0090 329° Northwest 469 540 38,000  Level FlightAware ADS-B
Wed 01:02:18 AM 27.0240 -112.0600 329° Northwest 470 541 38,000  Level FlightAware ADS-B
Wed 01:02:51 AM 27.0840 -112.1020 328° Northwest 470 541 38,000  Level FlightAware ADS-B
Wed 01:03:20 AM 27.1350 -112.1470 322° Northwest 471 542 38,000  Level FlightAware ADS-B
Wed 01:04:04 AM 27.2010 -112.2230 314° West 470 541 38,000  Level FlightAware ADS-B
Wed 01:04:44 AM 27.2610 -112.2930 314° West 472 543 38,000  Level FlightAware ADS-B
Wed 01:05:20 AM 27.3170 -112.3570 315° West 469 540 38,000  Level FlightAware ADS-B
Wed 01:05:49 AM 27.3590 -112.4040 315° West 467 537 38,000  Level FlightAware ADS-B
Wed 01:06:33 AM 27.4200 -112.4720 315° West 466 536 38,000  Level FlightAware ADS-B
Wed 01:07:12 AM 27.4870 -112.5480 315° West 465 535 38,000  Level FlightAware ADS-B
Wed 01:07:49 AM 27.5430 -112.6110 315° West 465 535 38,000  Level FlightAware ADS-B
Wed 01:08:20 AM 27.5910 -112.6660 315° West 468 539 38,000  Level FlightAware ADS-B
Wed 01:08:56 AM 27.6420 -112.7270 313° West 471 542 38,000  Level FlightAware ADS-B
Wed 01:09:32 AM 27.7000 -112.7940 314° West 470 541 38,000  Level FlightAware ADS-B
Wed 01:10:04 AM 27.7480 -112.8490 315° West 470 541 38,000  Level FlightAware ADS-B
Wed 01:10:40 AM 27.8040 -112.9120 315° West 468 539 38,000  Level FlightAware ADS-B
Wed 01:10:58 AM 27.8310 -112.9420 316° Northwest 466 536 38,000  Level FlightAware ADS-B
Wed 01:11:46 AM 27.9030 -113.0230 315° West 463 533 38,000  Level FlightAware ADS-B
Wed 01:12:22 AM 27.9590 -113.0870 315° West 463 533 38,000  Level FlightAware ADS-B
Wed 01:12:57 AM 28.0100 -113.1460 314° West 462 532 38,000  Level FlightAware ADS-B
Wed 01:13:30 AM 28.0600 -113.2030 315° West 461 531 38,000  Level FlightAware ADS-B
Wed 01:14:06 AM 28.1150 -113.2660 315° West 461 531 38,000  Level FlightAware ADS-B
Wed 01:14:42 AM 28.1700 -113.3280 315° West 465 535 38,000  Level FlightAware ADS-B
Wed 01:15:18 AM 28.2250 -113.3880 316° Northwest 466 536 38,000  Level FlightAware ADS-B
Wed 01:15:50 AM 28.2740 -113.4400 317° Northwest 465 535 38,000  Level FlightAware ADS-B
Wed 01:16:34 AM 28.3430 -113.5150 316° Northwest 463 533 38,000  Level FlightAware ADS-B
Wed 01:17:10 AM 28.3990 -113.5760 316° Northwest 461 531 38,000  Level FlightAware ADS-B
Wed 01:18:06 AM 28.4890 -113.6640 319° Northwest 458 527 38,000  Level FlightAware ADS-B
Wed 01:18:39 AM 28.5410 -113.6970 331° Northwest 458 527 38,000  Level FlightAware ADS-B
Wed 01:19:15 AM 28.5980 -113.7320 332° Northwest 458 527 38,000  Level FlightAware ADS-B
Wed 01:19:51 AM 28.6540 -113.7680 331° Northwest 458 527 38,000  Level FlightAware ADS-B
Wed 01:20:27 AM 28.7110 -113.8040 331° Northwest 458 527 38,000  Level FlightAware ADS-B
Wed 01:20:58 AM 28.8230 -113.8200 353° North 458 527 38,000  Level FlightAware ADS-B
Wed 01:21:37 AM 28.8920 -113.8510 339° North 458 527 38,000  Level FlightAware ADS-B
Wed 01:22:12 AM 28.9700 -113.8870 338° Northwest 458 527 38,000  Level FlightAware ADS-B
Wed 01:23:05 AM 29.0660 -113.9330 337° Northwest 459 528 38,000  Level FlightAware ADS-B
Wed 01:23:41 AM 29.1260 -113.9620 337° Northwest 459 528 38,000  Level FlightAware ADS-B
Wed 01:24:17 AM 29.1860 -113.9910 337° Northwest 459 528 38,000  Level FlightAware ADS-B
Wed 01:24:53 AM 29.2460 -114.0200 337° Northwest 459 528 38,000  Level FlightAware ADS-B
Wed 01:25:29 AM 29.3060 -114.0490 337° Northwest 459 528 38,000  Level FlightAware ADS-B
Wed 01:26:06 AM 29.3670 -114.0790 337° Northwest 459 528 38,000  Level FlightAware ADS-B
Wed 01:26:50 AM 29.5110 -114.1390 340° North 463 533 38,000  Level FlightAware ADS-B
Wed 01:27:26 AM 29.5710 -114.1680 337° Northwest 463 533 38,000  Level FlightAware ADS-B
Wed 01:28:02 AM 29.6320 -114.1980 337° Northwest 463 533 38,000  Level FlightAware ADS-B
Wed 01:28:38 AM 29.6920 -114.2270 337° Northwest 463 533 38,000  Level FlightAware ADS-B
Wed 01:29:14 AM 29.7520 -114.2560 337° Northwest 463 533 38,000  Level FlightAware ADS-B
Wed 01:29:50 AM 29.8130 -114.2860 337° Northwest 463 533 38,000  Level FlightAware ADS-B
Wed 01:30:26 AM 29.8730 -114.3160 337° Northwest 463 533 38,000  Level FlightAware ADS-B
Wed 01:31:02 AM 29.9330 -114.3450 337° Northwest 463 533 38,000  Level FlightAware ADS-B
Wed 01:31:39 AM 29.9950 -114.3750 337° Northwest 463 533 38,000  Level FlightAware ADS-B
Wed 01:32:15 AM 30.0560 -114.4050 337° Northwest 463 533 38,000  Level FlightAware ADS-B
Wed 01:32:51 AM 30.1160 -114.4350 337° Northwest 463 533 38,000  Level FlightAware ADS-B
Wed 01:33:27 AM 30.1760 -114.4640 337° Northwest 463 533 38,000  Level FlightAware ADS-B
Wed 01:34:03 AM 30.2370 -114.4940 337° Northwest 463 533 38,000  Level FlightAware ADS-B
Wed 01:34:39 AM 30.2970 -114.5240 337° Northwest 463 533 38,000  Level FlightAware ADS-B
Wed 01:35:15 AM 30.3570 -114.5530 337° Northwest 463 533 38,000  Level FlightAware ADS-B
Wed 01:35:51 AM 30.4180 -114.5830 337° Northwest 463 533 38,000  Level FlightAware ADS-B
Wed 01:38:00 AM 30.8538 -115.0340 318° Northwest  Level Estimated
Wed 01:39:00 AM 31.0560 -115.2451 318° Northwest  Level Estimated
Wed 01:40:00 AM 31.2578 -115.4571 318° Northwest  Level Estimated
Wed 01:41:00 AM 31.4593 -115.6701 318° Northwest  Level Estimated
Wed 01:42:00 AM 31.6604 -115.8840 318° Northwest  Level Estimated
Wed 01:43:00 AM 31.8612 -116.0987 318° Northwest  Level Estimated
Wed 01:44:00 AM 32.0616 -116.3145 318° Northwest  Level Estimated
Wed 01:45:00 AM 32.2616 -116.5312 318° Northwest  Level Estimated
Wed 01:45:09 AM 31.7250 -115.1940 318° Northwest 470 541 38,000  Level FlightAware ADS-B
Wed 01:45:41 AM 31.7890 -115.2250 338° Northwest 468 539 38,000  Level FlightAware ADS-B
Wed 01:46:19 AM 31.8530 -115.2570 337° Northwest 468 539 38,000  Level FlightAware ADS-B
Wed 01:46:53 AM 31.9340 -115.2970 337° Northwest 466 536 38,000  Level FlightAware ADS-B
Wed 01:47:29 AM 32.0070 -115.3330 337° Northwest 467 537 38,000  Level FlightAware ADS-B
Wed 01:48:03 AM 32.0740 -115.3660 337° Northwest 468 539 38,000  Level FlightAware ADS-B
Wed 01:48:37 AM 32.1420 -115.3990 338° Northwest 468 539 38,000  Level FlightAware ADS-B
Wed 01:49:15 AM 32.2190 -115.4370 337° Northwest 469 540 38,000  Level FlightAware ADS-B
Wed 01:49:44 AM 32.2760 -115.4650 337° Northwest 473 544 38,000  Level FlightAware ADS-B
Wed 01:50:22 AM 32.3540 -115.5040 337° Northwest 476 548 38,000  Level FlightAware ADS-B
Wed 01:50:56 AM 32.4230 -115.5390 337° Northwest 478 550 38,000  Level FlightAware ADS-B
Wed 01:51:32 AM 32.4940 -115.5740 337° Northwest 480 552 38,000  Level FlightAware ADS-B
Wed 01:52:08 AM 32.5700 -115.6120 337° Northwest 483 556 38,000  Level FlightAware ADS-B
Wed 01:52:43 AM 32.6390 -115.6530 333° Northwest 479 551 38,000  Level FlightAware ADS-B
Wed 01:53:16 AM 32.6860 -115.7160 312° West 474 545 38,000  Level FlightAware ADS-B
Wed 01:53:52 AM 32.7290 -115.7980 302° West 474 545 38,000  Level FlightAware ADS-B
Wed 01:54:28 AM 32.7710 -115.8780 302° West 474 545 38,000 -247 Level FlightAware ADS-B
Wed 01:55:05 AM 32.8130 -115.9560 303° West 472 543 37,700 -1,588 Descending FlightAware ADS-B
Wed 01:55:36 AM 32.8500 -116.0270 302° West 479 551 36,200 -3,045 Descending FlightAware ADS-B
Wed 01:56:12 AM 32.8920 -116.1070 302° West 482 555 34,300 -3,243 Descending FlightAware ADS-B
Wed 01:56:50 AM 32.9360 -116.1890 303° West 480 552 32,200 -3,565 Descending FlightAware ADS-B
Wed 01:57:21 AM 32.9740 -116.2620 302° West 478 550 30,200 -3,529 Descending FlightAware ADS-B
Wed 01:57:58 AM 33.0160 -116.3450 301° West 477 549 28,200 -2,789 Descending FlightAware ADS-B
Wed 01:58:32 AM 33.0530 -116.4180 301° West 466 536 26,900 -2,314 Descending FlightAware ADS-B
Wed 01:59:08 AM 33.0950 -116.4990 302° West 449 517 25,500 -2,261 Descending FlightAware ADS-B
Wed 01:59:41 AM 33.1290 -116.5670 301° West 435 501 24,300 -1,286 Descending FlightAware ADS-B
Wed 02:00:18 AM 33.1480 -116.6480 286° West 396 456 24,000 -667 Descending FlightAware ADS-B
Wed 02:00:53 AM 33.1570 -116.7200 279° West 368 423 23,500 -1,437 Descending FlightAware ADS-B
Wed 02:01:29 AM 33.1660 -116.7920 279° West 367 422 22,300 -2,118 Descending FlightAware ADS-B
Wed 02:02:01 AM 33.1740 -116.8540 279° West 371 427 21,100 -2,657 Descending FlightAware ADS-B
Wed 02:02:39 AM 33.1830 -116.9330 278° West 384 442 19,200 -2,583 Descending FlightAware ADS-B
Wed 02:03:13 AM 33.1920 -117.0030 279° West 382 440 18,000 -2,239 Descending FlightAware ADS-B
Wed 02:03:46 AM 33.2000 -117.0720 278° West 378 435 16,700 -2,735 Descending FlightAware ADS-B
Wed 02:04:21 AM 33.2090 -117.1460 278° West 389 448 14,900 -2,609 Descending FlightAware ADS-B
Wed 02:04:55 AM 33.2170 -117.2190 277° West 380 437 13,700 -2,027 Descending FlightAware ADS-B
Wed 02:05:35 AM 33.2270 -117.2990 279° West 369 425 12,400 -1,417 Descending FlightAware ADS-B
Wed 02:06:07 AM 33.2340 -117.3630 277° West 341 392 12,000 -273 Descending FlightAware ADS-B
Wed 02:06:41 AM 33.2410 -117.4240 278° West 320 368 12,100 85 Climbing FlightAware ADS-B
Wed 02:07:18 AM 33.2440 -117.4850 273° West 318 366 12,100  Level FlightAware ADS-B
Wed 02:07:30 AM 33.2480 -117.5110 280° West 321 369 12,100  Level FlightAware ADS-B
Wed 02:07:46 AM 33.2580 -117.5320 300° West 325 374 12,100 -960 Level FlightAware ADS-B
Wed 02:08:20 AM 33.2970 -117.5750 317° Northwest 328 377 11,300 -957 Descending FlightAware ADS-B
Wed 02:08:55 AM 33.3380 -117.6150 321° Northwest 327 376 11,000 -592 Descending FlightAware ADS-B
Wed 02:09:31 AM 33.3790 -117.6550 321° Northwest 307 353 10,600 -696 Descending FlightAware ADS-B
Wed 02:10:04 AM 33.4130 -117.6890 320° Northwest 298 343 10,200 -724 Descending FlightAware ADS-B
Wed 02:10:29 AM 33.4420 -117.7170 321° Northwest 296 341 9,900 -667 Descending FlightAware ADS-B
Wed 02:10:40 AM 33.4530 -117.7290 318° Northwest 296 341 9,800 -581 Descending FlightAware ADS-B
Wed 02:11:00 AM 33.4750 -117.7500 321° Northwest 298 343 9,600 -649 Descending FlightAware ADS-B
Wed 02:11:17 AM 33.4910 -117.7660 320° Northwest 298 343 9,400 -649 Descending FlightAware ADS-B
Wed 02:11:37 AM 33.5140 -117.7890 320° Northwest 296 341 9,200 -581 Descending FlightAware ADS-B
Wed 02:11:48 AM 33.5250 -117.7990 323° Northwest 296 341 9,100 -686 Descending FlightAware ADS-B
Wed 02:12:12 AM 33.5500 -117.8240 320° Northwest 295 339 8,800 -667 Descending FlightAware ADS-B
Wed 02:12:33 AM 33.5730 -117.8460 321° Northwest 295 339 8,600 -667 Descending FlightAware ADS-B
Wed 02:12:48 AM 33.5900 -117.8630 320° Northwest 295 339 8,400 -686 Descending FlightAware ADS-B
Wed 02:13:08 AM 33.6080 -117.8810 320° Northwest 294 338 8,200 -545 Descending FlightAware ADS-B
Wed 02:13:21 AM 33.6240 -117.8970 320° Northwest 293 337 8,100 -649 Descending FlightAware ADS-B
Wed 02:13:45 AM 33.6500 -117.9220 321° Northwest 291 335 7,800 -698 Descending FlightAware ADS-B
Wed 02:14:04 AM 33.6700 -117.9420 320° Northwest 289 333 7,600 -563 Descending FlightAware ADS-B
Wed 02:14:17 AM 33.6820 -117.9550 318° Northwest 288 331 7,500 -649 Descending FlightAware ADS-B
Wed 02:14:41 AM 33.7060 -117.9790 320° Northwest 288 331 7,200 -698 Descending FlightAware ADS-B
Wed 02:15:00 AM 33.7270 -117.9990 322° Northwest 287 330 7,000 -308 Descending FlightAware ADS-B
Wed 02:15:20 AM 33.7460 -118.0180 320° Northwest 276 318 7,000  Level FlightAware ADS-B
Wed 02:15:37 AM 33.7630 -118.0350 320° Northwest 269 310 7,000  Level FlightAware ADS-B
Wed 02:15:57 AM 33.7840 -118.0510 328° Northwest 259 298 7,000  Level FlightAware ADS-B
Wed 02:16:01 AM 33.7880 -118.0520 348° North 257 296 7,000  Level FlightAware ADS-B
Wed 02:16:17 AM 33.8060 -118.0560 350° North 254 292 7,000 -343 Level FlightAware ADS-B
Wed 02:16:36 AM 33.8290 -118.0590 354° North 247 284 6,800 -833 Descending FlightAware ADS-B
Wed 02:16:53 AM 33.8470 -118.0620 352° North 241 277 6,500 -1,333 Descending FlightAware ADS-B
Wed 02:17:12 AM 33.8690 -118.0660 351° North 241 277 6,000 -1,385 Descending FlightAware ADS-B
Wed 02:17:32 AM 33.8910 -118.0690 354° North 238 274 5,600 -1,135 Descending FlightAware ADS-B
Wed 02:17:49 AM 33.9100 -118.0720 353° North 231 266 5,300 -973 Descending FlightAware ADS-B
Wed 02:18:09 AM 33.9300 -118.0780 346° North 228 262 5,000 -1,034 Descending FlightAware ADS-B
Wed 02:18:18 AM 33.9370 -118.0850 320° Northwest 224 258 4,800 -923 Descending FlightAware ADS-B
Wed 02:18:22 AM 33.9400 -118.0900 306° West 221 254 4,800 -545 Level FlightAware ADS-B
Wed 02:18:29 AM 33.9420 -118.0970 289° West 216 249 4,700 -750 Descending FlightAware ADS-B
Wed 02:18:38 AM 33.9450 -118.1070 290° West 209 241 4,600 -571 Descending FlightAware ADS-B
Wed 02:18:50 AM 33.9480 -118.1210 284° West 200 230 4,500 -500 Descending FlightAware ADS-B
Wed 02:19:14 AM 33.9530 -118.1440 285° West 185 213 4,300 -818 Descending FlightAware ADS-B
Wed 02:19:34 AM 33.9570 -118.1640 284° West 184 212 3,900 -1,286 Descending FlightAware ADS-B
Wed 02:19:42 AM 33.9580 -118.1730 278° West 188 216 3,700 -1,548 Descending FlightAware ADS-B
Wed 02:20:05 AM 33.9570 -118.1910 266° West 197 227 3,100 -1,421 Descending FlightAware ADS-B
Wed 02:20:20 AM 33.9550 -118.2120 263° West 190 219 2,800 -955 Descending FlightAware ADS-B
Wed 02:20:49 AM 33.9520 -118.2420 263° West 169 194 2,400 -857 Descending FlightAware ADS-B
Wed 02:21:09 AM 33.9500 -118.2560 260° West 160 184 2,100 -840 Descending FlightAware ADS-B
Wed 02:21:39 AM 33.9470 -118.2850 263° West 153 176 1,700 -750 Descending FlightAware ADS-B
Wed 02:21:57 AM 33.9460 -118.2990 265° West 149 171 1,500 -811 Descending FlightAware ADS-B
Wed 02:22:16 AM 33.9440 -118.3160 262° West 149 171 1,200 -789 Descending FlightAware ADS-B
Wed 02:22:35 AM 33.9430 -118.3320 266° West 153 176 1,000 -769 Descending FlightAware ADS-B
Wed 02:22:55 AM 33.9410 -118.3480 261° West 156 180 700 -857 Descending FlightAware ADS-B
Wed 02:23:17 AM 33.9390 -118.3680 263° West 149 171 400 -789 Descending FlightAware ADS-B
Wed 02:23:33 AM 33.9380 -118.3800 264° West 147 169 200 -293 Descending FlightAware ADS-B
Wed 02:23:58 AM 33.9360 -118.3970 262° West 147 169 200  Level FlightAware ADS-B
Wed 02:31:00 AM 33.9333 -118.4000 296° West  Level FlightAware Approximate
Wed 02:32:00 AM 33.9425 -118.4081 296° West  Level Estimated

Login

Don't have an account? Register now (free) for customized features, flight alerts, and more!